Terminal Aerodrome Forecast
Issued by NWS

Home | Current Version | Previous Version | Text Only | Print | Product List | Glossary On
Versions: 1 2 3 4 5 6 7 8 9 10 11 12 13 14 15 16 17 18 19 20 21
000
FTUS43 KILX 292334
TAFDEC
TAF
KDEC 292334Z 3000/3024 10014G22KT P6SM VCSH SCT015 OVC035
     FM300600 12014G22KT 4SM -RA BR OVC015
     FM300900 12014G24KT 4SM -RA VCTS OVC015CB
     FM301500 13014KT 6SM BR VCSH OVC008
     FM301900 18013KT P6SM VCTS OVC035CB=

USA.gov is the U.S. government's official web portal to all federal, state and local government web resources and services.